Columbia Gorge Regional the Dalles Municipal Airport The Dalles US
ICAO: KDLS
IATA: DLS
Category: Medium
Scheduled Services: No

Elevation: 247 ft
TransAlt. 18000 ft.

Airport Communications:
ASOS:135.175
SEATTLE CNTR:119.65
SEATTLE RDO:122.65
CTAF/UNICOM:123

KDLS Zoom In..

If you have problems with the map follow the link
https://www.worldairports.se/pages/airport.php?
ICAO=KDLS

Runways:

(A) RW 07 length 4647 ft width 100 ft
---- / hdg 69

(B) RW 13 length 5097 ft width 100 ft
---- / hdg 126

(C) RW 25 length 4647 ft width 100 ft
ILS 109.35 / hdg 249

(D) RW 31 length 5097 ft width 100 ft
---- / hdg 306

Location; KDLS
Day. 22 / Time. 09.53 Zulu
* Altimeter: 30.06
* Temperature: 02° c. 35.6°f.
* Wind from: 000° Speed 00 kn.
Dewpoint: 00° c.
Visibility: 10 Statute Miles.
Clouds: Scattered 5500 ft.

KDLS 220953Z AUTO 00000KT 10SM SCT055 02/00 A3006 RMK AO2 SLP180 T00170000


Wind - Calm.

 
 
jpsmedia worldairports.se 2020   terms of use